Time;durP1;ratioP1;P1;durP2;ratioP2;P2;SDS_P1;SDS_P2;PMS_P1;PMS_P2;Temp;Humidity;BMP_temperature;BMP_pressure;BME280_temperature;BME280_humidity;BME280_pressure;Samples;Min_cycle;Max_cycle;Signal;HPM_P1;HPM_P2
2023/08/03 00:00:43;;;;;;;0.60;0.50;;;19.20;99.90;;;;;;5008791;28;20205;-67
2023/08/03 00:03:11;;;;;;;1.38;0.70;;;19.20;99.90;;;;;;5010514;28;20204;-66
2023/08/03 00:05:39;;;;;;;0.50;0.40;;;19.20;99.90;;;;;;5009766;28;20201;-67
2023/08/03 00:08:07;;;;;;;0.50;0.30;;;19.20;99.90;;;;;;5010303;28;20221;-67
2023/08/03 00:10:37;;;;;;;0.80;0.77;;;19.30;99.90;;;;;;5006272;28;20209;-66
2023/08/03 00:13:05;;;;;;;1.50;1.40;;;19.30;99.90;;;;;;5008464;28;20615;-66
2023/08/03 00:15:33;;;;;;;0.63;0.45;;;19.30;99.90;;;;;;4992872;28;20205;-63
2023/08/03 00:18:01;;;;;;;0.50;0.40;;;19.30;99.90;;;;;;4996790;28;20225;-64
2023/08/03 00:20:29;;;;;;;0.50;0.30;;;19.20;99.90;;;;;;4992985;28;20573;-64
2023/08/03 00:22:57;;;;;;;1.08;0.40;;;19.20;99.90;;;;;;4999809;28;20212;-63
2023/08/03 00:25:25;;;;;;;0.60;0.50;;;19.30;99.90;;;;;;4992669;28;20216;-64
2023/08/03 00:27:54;;;;;;;0.50;0.30;;;19.30;99.90;;;;;;4991828;28;20233;-64
2023/08/03 00:30:22;;;;;;;0.50;0.50;;;19.30;99.90;;;;;;5006385;28;20567;-64
2023/08/03 00:32:50;;;;;;;0.50;0.40;;;19.20;99.90;;;;;;5003039;28;20217;-64
2023/08/03 00:35:19;;;;;;;1.02;0.65;;;19.20;99.90;;;;;;4992464;28;20253;-64
2023/08/03 00:37:46;;;;;;;0.50;0.30;;;19.20;99.90;;;;;;4991551;28;20241;-64
2023/08/03 00:40:14;;;;;;;0.50;0.30;;;19.20;99.90;;;;;;4999826;28;20206;-64
2023/08/03 00:42:42;;;;;;;0.50;0.30;;;19.20;99.90;;;;;;4995602;28;20209;-65
2023/08/03 00:45:12;;;;;;;0.50;0.30;;;19.10;99.90;;;;;;5009114;28;20213;-65
2023/08/03 00:47:41;;;;;;;0.50;0.40;;;19.10;99.90;;;;;;5007533;28;20232;-64
2023/08/03 00:50:09;;;;;;;0.50;0.40;;;19.10;99.90;;;;;;5006245;28;20225;-66
2023/08/03 00:52:38;;;;;;;6.90;1.05;;;19.10;99.90;;;;;;5009618;28;20201;-65
2023/08/03 00:55:07;;;;;;;0.70;0.40;;;19.10;99.90;;;;;;5010218;28;20672;-65
2023/08/03 00:57:35;;;;;;;0.60;0.40;;;19.10;99.90;;;;;;5009933;28;20276;-65
2023/08/03 01:00:03;;;;;;;0.50;0.40;;;19.10;99.90;;;;;;5005422;28;20216;-64
2023/08/03 01:02:33;;;;;;;0.70;0.50;;;19.10;99.90;;;;;;5004950;28;20577;-64
2023/08/03 01:05:01;;;;;;;0.50;0.30;;;19.10;99.90;;;;;;5009660;28;20296;-65
2023/08/03 01:07:29;;;;;;;0.50;0.35;;;19.10;99.90;;;;;;5009110;28;20579;-65
2023/08/03 01:09:57;;;;;;;0.50;0.40;;;19.10;99.90;;;;;;5008879;28;20232;-65
2023/08/03 01:12:25;;;;;;;0.50;0.30;;;19.00;99.90;;;;;;5010962;28;20209;-65
2023/08/03 01:14:53;;;;;;;0.50;0.30;;;19.00;99.90;;;;;;5008149;28;20212;-65
2023/08/03 01:17:21;;;;;;;0.50;0.30;;;19.00;99.90;;;;;;5009445;28;20224;-65
2023/08/03 01:19:51;;;;;;;0.50;0.30;;;19.10;99.90;;;;;;5008008;28;20569;-65
2023/08/03 01:22:20;;;;;;;0.50;0.30;;;19.10;99.90;;;;;;5005707;28;20201;-65
2023/08/03 01:24:49;;;;;;;0.50;0.30;;;19.00;99.90;;;;;;5008222;28;20208;-65
2023/08/03 01:27:18;;;;;;;0.50;0.30;;;19.00;99.90;;;;;;5001883;28;20589;-64
2023/08/03 01:29:46;;;;;;;0.50;0.40;;;19.00;99.90;;;;;;5002992;28;20234;-65
2023/08/03 01:32:14;;;;;;;0.50;0.30;;;19.00;99.90;;;;;;5011031;28;20263;-64
2023/08/03 01:34:42;;;;;;;0.52;0.35;;;19.00;99.90;;;;;;5007378;28;20215;-65
2023/08/03 01:37:09;;;;;;;0.60;0.43;;;19.00;99.90;;;;;;5007943;28;20213;-65
2023/08/03 01:39:37;;;;;;;0.50;0.30;;;19.00;99.90;;;;;;5003942;28;20616;-65
2023/08/03 01:42:08;;;;;;;0.60;0.40;;;19.00;99.90;;;;;;5008718;28;20953;-65
2023/08/03 01:44:36;;;;;;;0.70;0.45;;;18.90;99.90;;;;;;5010045;28;20209;-66
2023/08/03 01:47:04;;;;;;;0.60;0.50;;;18.90;99.90;;;;;;5008005;28;20574;-64
2023/08/03 01:49:34;;;;;;;0.70;0.50;;;18.80;99.90;;;;;;5010750;28;20707;-65
2023/08/03 01:52:02;;;;;;;0.50;0.30;;;18.80;99.90;;;;;;5009787;28;20215;-64
2023/08/03 01:54:30;;;;;;;0.50;0.30;;;18.70;99.90;;;;;;5003768;28;20590;-65
2023/08/03 01:56:57;;;;;;;0.50;0.30;;;18.70;99.90;;;;;;5009840;28;20267;-65
2023/08/03 01:59:27;;;;;;;0.50;0.30;;;18.60;99.90;;;;;;5003980;28;20225;-65
2023/08/03 02:01:54;;;;;;;0.50;0.38;;;18.50;99.90;;;;;;5007121;28;20267;-65
2023/08/03 02:04:22;;;;;;;1.73;1.63;;;18.50;99.90;;;;;;5008233;28;20205;-65
2023/08/03 02:06:52;;;;;;;0.50;0.30;;;18.50;99.90;;;;;;5005773;28;20296;-65
2023/08/03 02:09:20;;;;;;;0.50;0.40;;;18.50;99.90;;;;;;4991051;28;20237;-64
2023/08/03 02:11:48;;;;;;;0.50;0.40;;;18.50;99.90;;;;;;4997082;28;20233;-64
2023/08/03 02:14:16;;;;;;;0.50;0.40;;;18.40;99.90;;;;;;4994877;28;20232;-64
2023/08/03 02:16:45;;;;;;;0.65;0.45;;;18.40;99.90;;;;;;4995048;28;20202;-63
2023/08/03 02:19:13;;;;;;;0.50;0.30;;;18.30;99.90;;;;;;4994584;28;20225;-63
2023/08/03 02:21:41;;;;;;;0.50;0.40;;;18.30;99.90;;;;;;5007128;28;20588;-64
2023/08/03 02:24:09;;;;;;;0.50;0.30;;;18.20;99.90;;;;;;5012852;28;20256;-64
2023/08/03 02:26:37;;;;;;;0.50;0.30;;;18.10;99.90;;;;;;5012474;28;20244;-65
2023/08/03 02:29:06;;;;;;;0.70;0.60;;;17.90;99.90;;;;;;5009011;28;20224;-65
2023/08/03 02:31:33;;;;;;;0.50;0.38;;;17.80;99.90;;;;;;5009738;28;20204;-65
2023/08/03 02:34:02;;;;;;;0.50;0.30;;;17.70;99.90;;;;;;5011548;28;20201;-65
2023/08/03 02:36:30;;;;;;;0.50;0.40;;;17.50;99.90;;;;;;5018633;28;20205;-64
2023/08/03 02:38:58;;;;;;;0.50;0.40;;;17.50;99.90;;;;;;5123121;22;20315;-67
2023/08/03 02:41:26;;;;;;;0.65;0.40;;;17.40;99.90;;;;;;5016228;28;20220;-66
2023/08/03 02:43:53;;;;;;;0.50;0.30;;;17.30;99.90;;;;;;5016634;28;20217;-67
2023/08/03 02:46:21;;;;;;;0.50;0.40;;;17.30;99.90;;;;;;5013430;28;20271;-66
2023/08/03 02:48:49;;;;;;;0.50;0.30;;;17.30;99.90;;;;;;5011880;28;20234;-67
2023/08/03 02:51:19;;;;;;;0.60;0.40;;;17.30;99.90;;;;;;5012035;28;20614;-66
2023/08/03 02:53:46;;;;;;;0.60;0.50;;;17.30;99.90;;;;;;5010577;28;20216;-66
2023/08/03 02:56:14;;;;;;;0.60;0.40;;;17.30;99.90;;;;;;5012920;28;20609;-67
2023/08/03 02:58:42;;;;;;;0.50;0.30;;;17.30;99.90;;;;;;5012083;28;20628;-66
2023/08/03 03:01:11;;;;;;;0.50;0.40;;;17.30;99.90;;;;;;5010715;28;20197;-68
2023/08/03 03:03:39;;;;;;;0.50;0.30;;;17.30;99.90;;;;;;5006028;28;20216;-66
2023/08/03 03:06:07;;;;;;;0.50;0.40;;;17.30;99.90;;;;;;5001044;28;20213;-66
2023/08/03 03:08:37;;;;;;;1.45;0.63;;;17.30;99.90;;;;;;5011368;28;20225;-66
2023/08/03 03:11:04;;;;;;;0.50;0.40;;;17.20;99.90;;;;;;5011741;28;20220;-66
2023/08/03 03:13:32;;;;;;;0.73;0.73;;;17.20;99.90;;;;;;5008303;28;20558;-66
2023/08/03 03:16:00;;;;;;;0.70;0.50;;;17.10;99.90;;;;;;5012440;28;20267;-66
2023/08/03 03:18:28;;;;;;;0.50;0.45;;;17.10;99.90;;;;;;5006634;28;20557;-67
2023/08/03 03:20:56;;;;;;;0.50;0.40;;;17.10;99.90;;;;;;5006488;28;20209;-66
2023/08/03 03:23:24;;;;;;;0.60;0.40;;;17.10;99.90;;;;;;5005683;28;20241;-67
2023/08/03 03:25:53;;;;;;;0.50;0.40;;;17.10;99.90;;;;;;5011404;28;20622;-66
2023/08/03 03:28:21;;;;;;;0.50;0.30;;;17.00;99.90;;;;;;5010661;28;20220;-66
2023/08/03 03:30:49;;;;;;;0.50;0.40;;;16.90;99.90;;;;;;5011110;28;20231;-68
2023/08/03 03:33:17;;;;;;;0.50;0.30;;;16.90;99.90;;;;;;5011800;28;20671;-66
2023/08/03 03:35:45;;;;;;;0.50;0.40;;;16.80;99.90;;;;;;5011877;28;20213;-67
2023/08/03 03:38:13;;;;;;;0.50;0.30;;;16.80;99.90;;;;;;5010742;28;20241;-67
2023/08/03 03:40:42;;;;;;;0.50;0.40;;;16.80;99.90;;;;;;5011063;28;20214;-67
2023/08/03 03:43:11;;;;;;;0.50;0.40;;;16.80;99.90;;;;;;5011325;28;20556;-66
2023/08/03 03:45:39;;;;;;;0.70;0.65;;;16.80;99.90;;;;;;5004933;28;20205;-66
2023/08/03 03:48:07;;;;;;;0.60;0.52;;;16.80;99.90;;;;;;5010079;28;20237;-66
2023/08/03 03:50:35;;;;;;;0.52;0.40;;;16.80;99.90;;;;;;5010604;28;20306;-67
2023/08/03 03:53:03;;;;;;;0.50;0.40;;;16.80;99.90;;;;;;5005700;28;20213;-66
2023/08/03 03:55:31;;;;;;;0.50;0.40;;;16.80;99.90;;;;;;5004527;28;20205;-66
2023/08/03 03:58:00;;;;;;;0.50;0.30;;;16.70;99.90;;;;;;5017031;28;20628;-66
2023/08/03 04:00:30;;;;;;;0.63;0.40;;;16.70;99.90;;;;;;5012122;28;20581;-66
2023/08/03 04:02:57;;;;;;;0.55;0.40;;;16.80;99.90;;;;;;5012226;28;20213;-66
2023/08/03 04:05:26;;;;;;;0.70;0.40;;;16.80;99.90;;;;;;5011969;28;20209;-66
2023/08/03 04:07:54;;;;;;;0.90;0.50;;;16.80;99.90;;;;;;5000585;28;20244;-66
2023/08/03 04:10:22;;;;;;;0.77;0.77;;;16.80;99.90;;;;;;4999200;28;20846;-66
2023/08/03 04:12:50;;;;;;;2.58;0.88;;;16.70;99.90;;;;;;5001135;28;20213;-64
2023/08/03 04:15:18;;;;;;;;;;;16.70;99.90;;;;;;5001262;28;20099;-65
2023/08/03 04:17:48;;;;;;;;;;;16.60;99.90;;;;;;4996751;28;19971;-65
2023/08/03 04:20:16;;;;;;;;;;;16.60;99.90;;;;;;4999461;28;19967;-65
2023/08/03 04:22:44;;;;;;;;;;;16.60;99.90;;;;;;4998729;28;19974;-65
2023/08/03 04:25:14;;;;;;;;;;;16.60;99.90;;;;;;4999308;28;19969;-63
2023/08/03 04:27:42;;;;;;;;;;;16.60;99.90;;;;;;4996980;28;20341;-65
2023/08/03 04:30:11;;;;;;;;;;;16.70;99.90;;;;;;5000213;28;20419;-65
2023/08/03 04:32:39;;;;;;;;;;;16.70;99.90;;;;;;4997046;28;19960;-65
2023/08/03 04:35:09;;;;;;;;;;;16.70;99.90;;;;;;5000623;28;20461;-66
2023/08/03 04:37:36;;;;;;;;;;;16.70;99.90;;;;;;4997120;28;20047;-64
2023/08/03 04:40:05;;;;;;;;;;;16.70;99.90;;;;;;4998704;28;20074;-66
2023/08/03 04:42:33;;;;;;;;;;;16.80;99.90;;;;;;4998266;28;19970;-66
2023/08/03 04:45:00;;;;;;;;;;;16.70;99.90;;;;;;4998552;28;19972;-65
2023/08/03 04:47:28;;;;;;;;;;;16.70;99.90;;;;;;4996247;28;19974;-65
2023/08/03 04:49:56;;;;;;;;;;;16.70;99.90;;;;;;4999969;28;19967;-65
2023/08/03 04:52:25;;;;;;;;;;;16.80;99.90;;;;;;4999809;28;20406;-65
2023/08/03 04:54:53;;;;;;;;;;;16.80;99.90;;;;;;5000024;28;19968;-65
2023/08/03 04:57:23;;;;;;;;;;;16.80;99.90;;;;;;4997445;28;19967;-65
2023/08/03 04:59:51;;;;;;;;;;;16.70;99.90;;;;;;5001340;28;19967;-66
2023/08/03 05:02:19;;;;;;;;;;;16.70;99.90;;;;;;4998129;28;19974;-64
2023/08/03 05:04:47;;;;;;;;;;;16.60;99.90;;;;;;4998460;28;20056;-64
2023/08/03 05:07:15;;;;;;;;;;;16.60;99.90;;;;;;4995351;28;20058;-65
2023/08/03 05:09:44;;;;;;;;;;;16.60;99.90;;;;;;4999046;28;19968;-64
2023/08/03 05:12:11;;;;;;;;;;;16.60;99.90;;;;;;4999356;28;20017;-65
2023/08/03 05:14:39;;;;;;;;;;;16.60;99.90;;;;;;4998679;28;20399;-65
2023/08/03 05:17:07;;;;;;;;;;;16.60;99.90;;;;;;4998786;28;19974;-65
2023/08/03 05:19:35;;;;;;;;;;;16.60;99.90;;;;;;4998752;28;20373;-65
2023/08/03 05:22:02;;;;;;;;;;;16.60;99.90;;;;;;4997219;28;19963;-65
2023/08/03 05:24:30;;;;;;;;;;;16.50;99.90;;;;;;4999696;28;20002;-65
2023/08/03 05:26:59;;;;;;;;;;;16.50;99.90;;;;;;4998566;28;20055;-63
2023/08/03 05:29:31;;;;;;;;;;;16.50;99.90;;;;;;4998590;28;19971;-62
2023/08/03 05:31:59;;;;;;;;;;;16.50;99.90;;;;;;4999645;28;20497;-63
2023/08/03 05:34:27;;;;;;;;;;;16.50;99.90;;;;;;4998525;28;20517;-64
2023/08/03 05:36:55;;;;;;;;;;;16.50;99.90;;;;;;4998303;28;19971;-65
2023/08/03 05:39:25;;;;;;;;;;;16.60;99.90;;;;;;4996052;28;20446;-64
2023/08/03 05:41:53;;;;;;;;;;;16.60;99.90;;;;;;4997789;28;19967;-65
2023/08/03 05:44:22;;;;;;;;;;;16.70;99.90;;;;;;4998505;28;20947;-64
2023/08/03 05:46:50;;;;;;;;;;;16.80;99.90;;;;;;4997481;28;20355;-65
2023/08/03 05:49:18;;;;;;;;;;;16.80;99.90;;;;;;4997194;28;19971;-65
2023/08/03 05:51:45;;;;;;;;;;;16.80;99.90;;;;;;4996357;28;20481;-64
2023/08/03 05:54:14;;;;;;;;;;;16.90;99.90;;;;;;4998328;28;20001;-65
2023/08/03 05:56:42;;;;;;;;;;;16.80;99.90;;;;;;4995980;28;19971;-66
2023/08/03 05:59:15;;;;;;;;;;;16.80;99.90;;;;;;4996189;28;19964;-65
2023/08/03 06:01:44;;;;;;;;;;;16.90;99.90;;;;;;4996696;28;19968;-65
2023/08/03 06:04:12;;;;;;;;;;;16.90;99.90;;;;;;4998450;28;20462;-64
2023/08/03 06:06:40;;;;;;;;;;;16.90;99.90;;;;;;4995089;28;19961;-63
2023/08/03 06:09:10;;;;;;;;;;;16.90;99.90;;;;;;4995249;28;19959;-65
2023/08/03 06:11:38;;;;;;;;;;;16.90;99.90;;;;;;4996780;28;19960;-66
2023/08/03 06:14:06;;;;;;;;;;;16.90;99.90;;;;;;4998912;28;19960;-65
2023/08/03 06:16:33;;;;;;;;;;;16.90;99.90;;;;;;4999086;28;20342;-64
2023/08/03 06:19:03;;;;;;;;;;;16.90;99.90;;;;;;5006294;28;19966;-68
2023/08/03 06:21:30;;;;;;;;;;;16.90;99.90;;;;;;5008552;28;19960;-67
2023/08/03 06:23:59;;;;;;;;;;;17.00;99.90;;;;;;5011233;28;20427;-67
2023/08/03 06:26:27;;;;;;;;;;;17.00;99.90;;;;;;5010992;28;19964;-66
2023/08/03 06:28:56;;;;;;;;;;;17.00;99.90;;;;;;5004959;28;20453;-66
2023/08/03 06:31:25;;;;;;;;;;;17.00;99.90;;;;;;5010877;28;20021;-69
2023/08/03 06:33:53;;;;;;;;;;;17.00;99.90;;;;;;5007566;28;19970;-68
2023/08/03 06:36:25;;;;;;;;;;;17.10;99.90;;;;;;5007743;28;19959;-68
2023/08/03 06:38:53;;;;;;;;;;;17.10;99.90;;;;;;5003186;28;19964;-66
2023/08/03 06:41:23;;;;;;;;;;;17.10;99.90;;;;;;5009035;28;20311;-66
2023/08/03 06:43:51;;;;;;;;;;;17.20;99.90;;;;;;5030295;28;19963;-66
2023/08/03 06:46:19;;;;;;;;;;;17.20;99.90;;;;;;5023090;28;19974;-67
2023/08/03 06:48:46;;;;;;;;;;;17.30;99.90;;;;;;5030176;28;20053;-67
2023/08/03 06:51:14;;;;;;;;;;;17.30;99.90;;;;;;5030734;28;20030;-67
2023/08/03 06:53:43;;;;;;;;;;;17.30;99.90;;;;;;5030636;28;19971;-68
2023/08/03 06:56:11;;;;;;;;;;;17.30;99.90;;;;;;5025249;28;20237;-65
2023/08/03 06:58:39;;;;;;;;;;;17.30;99.90;;;;;;5032401;28;19963;-65
2023/08/03 07:01:07;;;;;;;;;;;17.30;99.90;;;;;;5033847;28;20438;-65
2023/08/03 07:03:35;;;;;;;;;;;17.20;99.90;;;;;;5033927;28;19964;-66
2023/08/03 07:06:04;;;;;;;;;;;17.20;99.90;;;;;;5034521;28;20038;-65
2023/08/03 07:08:32;;;;;;;;;;;17.20;99.90;;;;;;5033528;28;19975;-65
2023/08/03 07:11:01;;;;;;;;;;;17.10;99.90;;;;;;5028734;28;19970;-65
2023/08/03 07:13:29;;;;;;;;;;;17.10;99.90;;;;;;5013935;28;20443;-64
2023/08/03 07:16:05;;;;;;;;;;;17.00;99.90;;;;;;5014201;28;20418;-65
2023/08/03 07:18:33;;;;;;;;;;;17.00;99.90;;;;;;5013831;28;20491;-65
2023/08/03 07:21:03;;;;;;;;;;;17.00;99.90;;;;;;5013974;28;20062;-65
2023/08/03 07:23:31;;;;;;;;;;;17.00;99.90;;;;;;5013820;28;19977;-65
2023/08/03 07:25:59;;;;;;;;;;;17.00;99.90;;;;;;5014097;28;20017;-64
2023/08/03 07:28:28;;;;;;;;;;;17.00;99.90;;;;;;5013597;28;19964;-64
2023/08/03 07:30:56;;;;;;;;;;;17.00;99.90;;;;;;5013907;28;19964;-66
2023/08/03 07:33:24;;;;;;;;;;;17.10;99.90;;;;;;5013862;28;20070;-66
2023/08/03 07:35:51;;;;;;;;;;;17.10;99.90;;;;;;5013846;28;20422;-65
2023/08/03 07:38:19;;;;;;;;;;;17.20;99.90;;;;;;5012964;28;19963;-65
2023/08/03 07:40:47;;;;;;;;;;;17.30;99.90;;;;;;5014139;28;19967;-65
2023/08/03 07:43:15;;;;;;;;;;;17.30;99.90;;;;;;5012602;28;19961;-65
2023/08/03 07:45:44;;;;;;;;;;;17.40;99.90;;;;;;5012758;28;20489;-65
2023/08/03 07:48:14;;;;;;;;;;;17.50;99.90;;;;;;5012461;28;19969;-66
2023/08/03 07:50:42;;;;;;;;;;;17.60;99.90;;;;;;5012323;28;19999;-65
2023/08/03 07:53:10;;;;;;;;;;;17.70;99.90;;;;;;5012328;28;19959;-66
2023/08/03 07:55:38;;;;;;;;;;;17.80;99.90;;;;;;5012479;28;19967;-67
2023/08/03 07:58:05;;;;;;;;;;;17.90;99.90;;;;;;5012544;28;19961;-67
2023/08/03 08:00:33;;;;;;;;;;;18.00;99.90;;;;;;5012301;28;20475;-67
2023/08/03 08:03:04;;;;;;;;;;;18.30;99.90;;;;;;5012178;28;19964;-67
2023/08/03 08:05:32;;;;;;;;;;;18.30;99.90;;;;;;5012314;28;20068;-68
2023/08/03 08:07:59;;;;;;;;;;;18.40;99.90;;;;;;5011793;28;20386;-68
2023/08/03 08:10:27;;;;;;;;;;;18.50;99.90;;;;;;5013964;28;20011;-67
2023/08/03 08:12:55;;;;;;;;;;;18.50;99.90;;;;;;5011986;28;19961;-66
2023/08/03 08:15:23;;;;;;;;;;;18.50;99.90;;;;;;5012358;28;20383;-67
2023/08/03 08:17:50;;;;;;;;;;;18.50;99.90;;;;;;5012199;28;20066;-67
2023/08/03 08:20:20;;;;;;;;;;;18.40;99.90;;;;;;5012241;28;19959;-67
2023/08/03 08:22:47;;;;;;;;;;;18.30;99.90;;;;;;5011790;28;20026;-67
2023/08/03 08:25:15;;;;;;;;;;;18.30;99.90;;;;;;5012182;28;20418;-67
2023/08/03 08:27:43;;;;;;;;;;;18.30;99.90;;;;;;5011661;28;19959;-68
2023/08/03 08:30:11;;;;;;;;;;;18.30;99.90;;;;;;5011981;28;19959;-68
2023/08/03 08:32:39;;;;;;;;;;;18.30;99.90;;;;;;5011612;28;19967;-67
2023/08/03 08:35:08;;;;;;;;;;;18.20;99.90;;;;;;5011961;28;19967;-68
2023/08/03 08:37:37;;;;;;;;;;;18.20;99.90;;;;;;4975394;28;1028439;-68
2023/08/03 08:40:05;;;;;;;;;;;18.20;99.90;;;;;;5012834;28;19960;-68
2023/08/03 08:42:33;;;;;;;;;;;18.10;99.90;;;;;;5014638;28;20015;-67
2023/08/03 08:45:00;;;;;;;;;;;18.10;99.90;;;;;;5012498;28;19983;-67
2023/08/03 08:47:28;;;;;;;;;;;18.10;99.90;;;;;;5012364;28;19959;-68
2023/08/03 08:49:56;;;;;;;;;;;18.10;99.90;;;;;;5012491;28;19960;-67
2023/08/03 08:52:28;;;;;;;;;;;18.10;99.90;;;;;;5012505;28;19961;-67
2023/08/03 08:55:11;;;;;;;;;;;18.30;99.90;;;;;;5012310;28;19967;-67
2023/08/03 08:57:42;;;;;;;;;;;18.40;99.90;;;;;;5011882;28;20510;-69
2023/08/03 09:00:14;;;;;;;;;;;18.50;99.90;;;;;;5012614;28;20381;-72
2023/08/03 09:02:41;;;;;;;;;;;18.50;99.90;;;;;;5012131;28;20426;-68
2023/08/03 09:05:09;;;;;;;;;;;18.50;99.90;;;;;;5012471;28;19990;-67
2023/08/03 09:07:37;;;;;;;;;;;18.40;99.90;;;;;;5011515;28;20371;-68
2023/08/03 09:10:06;;;;;;;;;;;18.30;99.90;;;;;;5012236;28;20000;-67
2023/08/03 09:12:35;;;;;;;;;;;18.30;99.90;;;;;;5014625;28;19961;-67
2023/08/03 09:15:03;;;;;;;;;;;18.30;99.90;;;;;;5004527;28;20041;-67
2023/08/03 09:17:31;;;;;;;;;;;18.20;99.90;;;;;;5011642;28;19960;-67
2023/08/03 09:19:59;;;;;;;;;;;18.20;99.90;;;;;;5010924;28;20340;-65
2023/08/03 09:22:29;;;;;;;;;;;18.20;99.90;;;;;;5012506;28;20023;-70
2023/08/03 09:25:01;;;;;;;;;;;18.20;99.90;;;;;;5012097;28;19966;-67
2023/08/03 09:27:29;;;;;;;;;;;18.30;99.90;;;;;;5011820;28;20324;-67
2023/08/03 09:30:01;;;;;;;;;;;18.30;99.90;;;;;;5011732;28;19959;-67
2023/08/03 09:32:34;;;;;;;;;;;18.30;99.90;;;;;;5012015;28;20256;-67
2023/08/03 09:35:03;;;;;;;;;;;18.40;99.90;;;;;;5003767;28;19961;-67
2023/08/03 09:37:34;;;;;;;;;;;18.40;99.90;;;;;;5011294;28;19974;-68
2023/08/03 09:40:05;;;;;;;;;;;18.40;99.90;;;;;;5004145;28;19961;-69
2023/08/03 09:42:33;;;;;;;;;;;18.40;99.90;;;;;;5015272;28;19965;-68
2023/08/03 09:45:05;;;;;;;;;;;18.40;99.90;;;;;;5011734;28;19961;-68
2023/08/03 09:47:53;;;;;;;;;;;18.40;99.90;;;;;;5011344;28;19965;-67
2023/08/03 09:50:22;;;;;;;;;;;18.50;99.90;;;;;;5011770;28;19961;-68
2023/08/03 09:52:53;;;;;;;;;;;18.50;99.90;;;;;;5011701;28;19972;-67
2023/08/03 09:55:27;;;;;;;;;;;18.50;99.90;;;;;;5011561;28;19966;-67
2023/08/03 09:57:59;;;;;;;;;;;18.60;99.90;;;;;;5011079;28;20011;-67
2023/08/03 10:00:29;;;;;;;;;;;18.60;99.90;;;;;;5011689;28;19968;-67
2023/08/03 10:02:59;;;;;;;;;;;18.50;99.90;;;;;;5011459;28;19970;-66
2023/08/03 10:05:27;;;;;;;;;;;18.60;99.90;;;;;;5011554;28;19959;-68
2023/08/03 10:07:58;;;;;;;;;;;18.60;99.90;;;;;;5010919;28;19968;-67
2023/08/03 10:10:26;;;;;;;;;;;18.60;99.90;;;;;;5012945;28;20015;-67
2023/08/03 10:12:57;;;;;;;;;;;18.60;99.90;;;;;;5012718;28;19964;-68
2023/08/03 10:15:25;;;;;;;;;;;18.70;99.90;;;;;;5011653;28;19960;-68
2023/08/03 10:17:55;;;;;;;;;;;18.70;99.90;;;;;;5010898;28;20059;-68
2023/08/03 10:20:24;;;;;;;;;;;18.70;99.90;;;;;;5011319;28;19965;-68
2023/08/03 10:23:12;;;;;;;;;;;18.70;99.90;;;;;;5011155;28;19965;-67
2023/08/03 10:25:53;;;;;;;;;;;18.60;99.90;;;;;;5006722;28;20002;-67
2023/08/03 10:28:21;;;;;;;;;;;18.70;99.90;;;;;;5004990;28;20320;-67
2023/08/03 10:31:10;;;;;;;;;;;18.70;99.90;;;;;;5011910;28;19968;-67
2023/08/03 10:34:00;;;;;;;;;;;18.60;99.90;;;;;;5015253;28;20486;-68
2023/08/03 10:36:37;;;;;;;;;;;18.50;99.90;;;;;;5009917;28;19960;-67
2023/08/03 10:39:09;;;;;;;;;;;18.40;99.90;;;;;;5006529;28;19960;-67
2023/08/03 10:41:38;;;;;;;;;;;18.50;99.90;;;;;;5018395;28;20032;-67
2023/08/03 10:44:25;;;;;;;;;;;18.40;99.90;;;;;;5014712;28;19960;-68
2023/08/03 10:46:53;;;;;;;;;;;18.40;99.90;;;;;;5014785;28;19969;-67
2023/08/03 10:49:48;;;;;;;;;;;18.40;99.90;;;;;;5014491;28;19961;-67
2023/08/03 10:52:18;;;;;;;;;;;18.40;99.90;;;;;;5015069;28;20335;-68
2023/08/03 10:54:46;;;;;;;;;;;18.40;99.90;;;;;;5014281;28;20361;-67
2023/08/03 10:57:15;;;;;;;;;;;18.50;99.90;;;;;;5014406;28;19959;-67
2023/08/03 10:59:44;;;;;;;;;;;18.50;99.90;;;;;;5014406;28;19967;-68
2023/08/03 11:02:15;;;;;;;;;;;18.50;99.90;;;;;;5007140;28;20385;-68
2023/08/03 11:04:43;;;;;;;;;;;18.60;99.90;;;;;;5014541;28;19967;-69
2023/08/03 11:07:11;;;;;;;;;;;18.60;99.90;;;;;;5006353;28;19960;-66
2023/08/03 11:09:40;;;;;;;;;;;18.60;99.90;;;;;;5014148;28;20382;-67
2023/08/03 11:12:08;;;;;;;;;;;18.60;99.90;;;;;;5018322;28;19960;-67
2023/08/03 11:14:37;;;;;;;;;;;18.60;99.90;;;;;;5014207;28;20096;-67
2023/08/03 11:17:05;;;;;;;;;;;18.60;99.90;;;;;;5013991;28;19976;-69
2023/08/03 11:19:37;;;;;;;;;;;18.80;99.90;;;;;;5014073;28;20003;-67
2023/08/03 11:22:05;;;;;;;;;;;18.80;99.90;;;;;;5014166;28;20423;-67
2023/08/03 11:24:33;;;;;;;;;;;18.80;99.90;;;;;;5014250;28;20362;-67
2023/08/03 11:27:03;;;;;;;;;;;19.00;99.90;;;;;;5013864;28;20420;-67
2023/08/03 11:29:31;;;;;;;;;;;19.00;99.90;;;;;;5013609;28;19961;-67
2023/08/03 11:31:59;;;;;;;;;;;19.00;99.90;;;;;;5013825;28;20015;-67
2023/08/03 11:34:26;;;;;;;;;;;19.10;99.90;;;;;;5013866;28;19968;-69
2023/08/03 11:36:54;;;;;;;;;;;19.10;99.90;;;;;;5013643;28;20343;-68
2023/08/03 11:39:22;;;;;;;;;;;19.20;99.90;;;;;;5013475;28;19968;-67
2023/08/03 11:41:51;;;;;;;;;;;19.30;99.90;;;;;;5017637;28;19963;-67
2023/08/03 11:44:22;;;;;;;;;;;19.30;99.90;;;;;;5013151;28;20043;-67
2023/08/03 11:47:01;;;;;;;;;;;19.40;99.90;;;;;;5013712;28;19965;-68
2023/08/03 11:49:29;;;;;;;;;;;19.60;99.90;;;;;;5013570;28;20363;-67
2023/08/03 11:51:59;;;;;;;;;;;19.60;99.90;;;;;;5013418;28;20054;-67
2023/08/03 11:54:29;;;;;;;;;;;19.70;99.90;;;;;;5013501;28;20019;-67
2023/08/03 11:58:07;;;;;;;;;;;19.80;99.90;;;;;;5013315;28;20023;-67
2023/08/03 11:59:46;;;;;;;;;;;19.80;99.90;;;;;;5021455;28;19984;-69
2023/08/03 12:02:13;;;;;;;;;;;19.90;99.90;;;;;;5013397;28;20438;-68
2023/08/03 12:04:42;;;;;;;;;;;19.70;99.90;;;;;;5013435;28;19960;-68
2023/08/03 12:07:13;;;;;;;;;;;19.60;99.90;;;;;;5013080;28;19965;-70
2023/08/03 12:09:44;;;;;;;;;;;19.60;99.90;;;;;;5013178;28;19968;-66
2023/08/03 12:12:11;;;;;;;;;;;19.70;99.90;;;;;;5018008;28;20071;-67
2023/08/03 12:14:40;;;;;;;;;;;19.90;99.90;;;;;;5013407;28;19965;-67
2023/08/03 12:17:12;;;;;;;;;;;20.00;99.90;;;;;;5012744;28;20435;-67
2023/08/03 12:19:40;;;;;;;;;;;20.20;99.90;;;;;;5012804;28;20336;-67
2023/08/03 12:22:08;;;;;;;;;;;20.30;99.90;;;;;;5012907;28;20432;-68
2023/08/03 12:24:39;;;;;;;;;;;20.30;99.90;;;;;;5013325;28;20420;-67
2023/08/03 12:27:07;;;;;;;;;;;20.20;99.90;;;;;;5012974;28;19965;-67
2023/08/03 12:29:37;;;;;;;;;;;20.20;99.90;;;;;;5012889;28;20015;-67
2023/08/03 12:32:09;;;;;;;;;;;20.10;99.90;;;;;;5012795;28;19968;-68
2023/08/03 12:34:38;;;;;;;;;;;20.10;99.90;;;;;;5012887;28;20577;-67
2023/08/03 12:37:06;;;;;;;;;;;20.10;99.90;;;;;;5012449;28;20354;-69
2023/08/03 12:39:34;;;;;;;;;;;20.20;99.90;;;;;;5012752;28;19968;-71
2023/08/03 12:42:02;;;;;;;;;;;20.30;99.90;;;;;;5018079;28;19965;-67
2023/08/03 12:44:29;;;;;;;;;;;20.50;99.90;;;;;;5022902;28;20350;-68
2023/08/03 12:46:57;;;;;;;;;;;20.50;99.90;;;;;;5031990;28;19972;-66
2023/08/03 12:49:25;;;;;;;;;;;20.40;99.90;;;;;;5031928;28;19960;-67
2023/08/03 12:51:54;;;;;;;;;;;20.40;99.90;;;;;;5032222;28;20053;-68
2023/08/03 12:54:22;;;;;;;;;;;20.30;99.90;;;;;;5024223;28;20022;-67
2023/08/03 12:56:51;;;;;;;;;;;20.10;99.90;;;;;;5032040;28;19964;-67
2023/08/03 12:59:19;;;;;;;;;;;20.20;99.90;;;;;;5016063;28;20380;-68
2023/08/03 13:01:47;;;;;;;;;;;20.40;99.90;;;;;;5025158;28;20052;-69
2023/08/03 13:04:15;;;;;;;;;;;20.60;99.90;;;;;;5031006;28;19980;-70
2023/08/03 13:06:43;;;;;;;;;;;20.70;99.90;;;;;;5031775;28;20378;-67
2023/08/03 13:09:12;;;;;;;;;;;20.80;99.90;;;;;;5031429;28;19971;-67
2023/08/03 13:11:40;;;;;;;;;;;21.00;99.90;;;;;;5025962;28;20035;-67
2023/08/03 13:14:08;;;;;;;;;;;21.20;99.90;;;;;;5012028;28;19969;-69
2023/08/03 13:16:40;;;;;;;;;;;21.30;99.90;;;;;;5012083;28;19965;-68
2023/08/03 13:19:08;;;;;;;;;;;21.30;99.90;;;;;;5011713;28;19965;-69
2023/08/03 13:21:36;;;;;;;;;;;21.30;99.90;;;;;;5012233;28;19961;-68
2023/08/03 13:24:04;;;;;;;;;;;21.30;99.90;;;;;;5011885;28;19965;-68
2023/08/03 13:26:33;;;;;;;;;;;21.20;99.90;;;;;;5012012;28;19964;-68
2023/08/03 13:29:01;;;;;;;;;;;21.40;99.90;;;;;;5011363;28;19964;-70
2023/08/03 13:31:29;;;;;;;;;;;21.60;99.90;;;;;;5011956;28;20414;-67
2023/08/03 13:33:57;;;;;;;;;;;21.50;99.90;;;;;;5011935;28;20011;-67
2023/08/03 13:36:24;;;;;;;;;;;21.30;99.90;;;;;;5003890;28;20455;-68
2023/08/03 13:38:52;;;;;;;;;;;21.20;99.90;;;;;;5011202;28;19972;-68
2023/08/03 13:41:22;;;;;;;;;;;21.10;99.90;;;;;;5017620;28;19960;-68
2023/08/03 13:43:51;;;;;;;;;;;20.90;99.90;;;;;;5011699;28;20382;-69
2023/08/03 13:46:19;;;;;;;;;;;20.60;99.90;;;;;;5011663;28;19972;-68
2023/08/03 13:48:47;;;;;;;;;;;20.40;99.90;;;;;;5011408;28;19971;-67
2023/08/03 13:51:14;;;;;;;;;;;20.50;99.90;;;;;;5011447;28;19968;-67
2023/08/03 13:53:42;;;;;;;;;;;20.40;99.90;;;;;;5011686;28;19968;-68
2023/08/03 13:56:10;;;;;;;;;;;20.30;99.90;;;;;;5011459;28;19965;-70